Time;durP1;ratioP1;P1;durP2;ratioP2;P2;SDS_P1;SDS_P2;PMS_P1;PMS_P2;Temp;Humidity;BMP_temperature;BMP_pressure;BME280_temperature;BME280_humidity;BME280_pressure;Samples;Min_cycle;Max_cycle;Signal;HPM_P1;HPM_P2
2022/01/10 00:02:18;;;;;;;;;;;;;;;-18.28;89.44;102067.28;5113385;28;19927;-76
2022/01/10 00:04:45;;;;;;;;;;;;;;;-18.23;89.56;102061.06;5113277;28;19919;-75
2022/01/10 00:07:12;;;;;;;;;;;;;;;-18.19;89.38;102069.63;5113539;28;19932;-75
2022/01/10 00:09:38;;;;;;;;;;;;;;;-18.31;89.17;102069.50;5114019;28;19934;-79
2022/01/10 00:12:05;;;;;;;;;;;;;;;-18.15;88.50;102075.75;5113451;28;19920;-82
2022/01/10 00:14:33;;;;;;;;;;;;;;;-17.85;88.51;102070.75;5113473;28;19930;-77
2022/01/10 00:17:00;;;;;;;;;;;;;;;-18.02;87.59;102076.84;5113431;28;19924;-75
2022/01/10 00:19:26;;;;;;;;;;;;;;;-18.09;87.88;102077.09;5113181;28;19948;-74
2022/01/10 00:21:53;;;;;;;;;;;;;;;-18.27;88.16;102086.41;5113204;28;19920;-74
2022/01/10 00:24:19;;;;;;;;;;;;;;;-18.50;88.88;102084.50;5113149;28;19919;-76
2022/01/10 00:26:46;;;;;;;;;;;;;;;-18.39;88.38;102079.53;5113517;28;19919;-75
2022/01/10 00:29:12;;;;;;;;;;;;;;;-18.23;87.89;102087.53;5112977;28;19923;-74
2022/01/10 00:31:40;;;;;;;;;;;;;;;-18.19;87.13;102101.06;5113330;28;19920;-82
2022/01/10 00:34:07;;;;;;;;;;;;;;;-18.36;87.60;102103.03;5113368;28;19934;-74
2022/01/10 00:36:34;;;;;;;;;;;;;;;-18.48;88.50;102107.84;5113029;28;20273;-74
2022/01/10 00:39:00;;;;;;;;;;;;;;;-18.42;88.22;102116.56;5112896;28;20285;-75
2022/01/10 00:41:27;;;;;;;;;;;;;;;-18.51;89.07;102110.09;5113062;28;19927;-74
2022/01/10 00:43:53;;;;;;;;;;;;;;;-18.62;89.08;102117.38;5112776;28;20358;-81
2022/01/10 00:46:21;;;;;;;;;;;;;;;-18.65;88.51;102125.44;5112903;28;20376;-75
2022/01/10 00:48:49;;;;;;;;;;;;;;;-18.29;87.71;102122.66;5113009;28;19920;-82
2022/01/10 00:51:16;;;;;;;;;;;;;;;-18.52;87.76;102123.25;5123511;22;19920;-69
2022/01/10 00:53:44;;;;;;;;;;;;;;;-18.55;88.14;102129.56;5112976;28;19920;-70
2022/01/10 00:56:10;;;;;;;;;;;;;;;-18.53;87.56;102130.56;5113139;28;19919;-69
2022/01/10 00:58:37;;;;;;;;;;;;;;;-18.34;87.33;102126.41;5112809;28;19926;-70
2022/01/10 01:01:04;;;;;;;;;;;;;;;-18.29;87.33;102132.59;5112931;28;19930;-70
2022/01/10 01:03:31;;;;;;;;;;;;;;;-18.16;87.94;102134.47;5112961;28;20258;-70
2022/01/10 01:05:59;;;;;;;;;;;;;;;-18.24;87.80;102128.00;5112758;28;19920;-70
2022/01/10 01:08:28;;;;;;;;;;;;;;;-18.15;87.08;102133.75;5112643;28;19927;-70
2022/01/10 01:11:14;;;;;;;;;;;;;;;-18.34;89.30;102142.91;5112641;28;19955;-70
2022/01/10 01:13:52;;;;;;;;;;;;;;;-18.43;88.17;102137.19;5113064;28;19919;-68
2022/01/10 01:16:30;;;;;;;;;;;;;;;-18.24;87.28;102141.28;5112835;28;19964;-70
2022/01/10 01:19:12;;;;;;;;;;;;;;;-18.47;86.41;102128.59;5112480;28;20277;-70
2022/01/10 01:24:25;;;;;;;;;;;;;;;-18.57;86.18;102133.53;5112480;28;19998;-69
2022/01/10 01:26:52;;;;;;;;;;;;;;;-18.48;85.50;102144.25;5112502;28;19920;-72
2022/01/10 01:29:19;;;;;;;;;;;;;;;-18.64;85.97;102151.16;5112386;28;20400;-72
2022/01/10 01:31:46;;;;;;;;;;;;;;;-18.78;84.94;102150.84;5112462;28;20289;-66
2022/01/10 01:34:14;;;;;;;;;;;;;;;-19.01;85.31;102156.34;5112555;28;19923;-66
2022/01/10 01:36:45;;;;;;;;;;;;;;;-19.28;85.58;102164.75;5112547;28;19920;-75
2022/01/10 01:39:18;;;;;;;;;;;;;;;-19.36;84.91;102164.09;5112337;28;19926;-70
2022/01/10 01:41:45;;;;;;;;;;;;;;;-19.53;85.91;102183.19;5115432;28;19924;-69
2022/01/10 01:44:12;;;;;;;;;;;;;;;-19.70;86.50;102174.28;5116170;28;19921;-68
2022/01/10 01:46:39;;;;;;;;;;;;;;;-19.89;86.47;102180.06;5116123;28;19926;-70
2022/01/10 01:49:06;;;;;;;;;;;;;;;-19.78;86.87;102183.50;5115843;28;19920;-66
2022/01/10 01:51:33;;;;;;;;;;;;;;;-19.83;86.59;102189.66;5126402;22;19919;-75
2022/01/10 01:54:01;;;;;;;;;;;;;;;-19.84;86.23;102200.31;5116139;28;19927;-79
2022/01/10 01:56:28;;;;;;;;;;;;;;;-19.85;85.86;102203.53;5115931;28;20378;-75
2022/01/10 01:58:55;;;;;;;;;;;;;;;-19.94;85.99;102207.66;5115791;28;19919;-75
2022/01/10 02:03:49;;;;;;;;;;;;;;;-20.02;85.76;102215.25;5088629;28;19927;-75
2022/01/10 02:06:16;;;;;;;;;;;;;;;-20.05;85.78;102214.97;5095298;28;20411;-75
2022/01/10 02:08:43;;;;;;;;;;;;;;;-19.80;85.33;102224.66;5095314;28;19919;-74
2022/01/10 02:11:26;;;;;;;;;;;;;;;-20.02;85.18;102220.19;5147412;22;19927;-76
2022/01/10 02:13:53;;;;;;;;;;;;;;;-20.28;85.05;102224.41;5074071;28;20329;-73
2022/01/10 02:16:31;;;;;;;;;;;;;;;-20.45;86.71;102230.25;5073800;28;19921;-74
2022/01/10 02:18:58;;;;;;;;;;;;;;;-20.64;87.30;102231.78;5074593;28;19928;-75
2022/01/10 02:21:26;;;;;;;;;;;;;;;-20.61;86.96;102237.03;5074903;28;19920;-73
2022/01/10 02:23:53;;;;;;;;;;;;;;;-20.58;86.57;102234.84;5074799;28;19920;-74
2022/01/10 02:26:20;;;;;;;;;;;;;;;-20.47;86.90;102235.06;5074598;28;20354;-76
2022/01/10 02:28:46;;;;;;;;;;;;;;;-20.30;86.15;102243.19;5066708;28;19920;-76
2022/01/10 02:31:14;;;;;;;;;;;;;;;-20.33;85.29;102241.28;5074737;28;20298;-73
2022/01/10 02:33:41;;;;;;;;;;;;;;;-20.41;85.55;102244.66;5074836;28;19925;-73
2022/01/10 02:36:16;;;;;;;;;;;;;;;-20.29;84.72;102239.97;5074590;28;19920;-74
2022/01/10 02:38:51;;;;;;;;;;;;;;;-20.24;85.41;102238.78;5074659;28;19924;-74
2022/01/10 02:41:21;;;;;;;;;;;;;;;-20.23;84.28;102247.97;5074835;28;19927;-74
2022/01/10 02:43:48;;;;;;;;;;;;;;;-20.24;84.79;102246.22;5075246;28;19928;-75
2022/01/10 02:46:15;;;;;;;;;;;;;;;-20.19;84.21;102259.88;5074859;28;19927;-76
2022/01/10 02:48:41;;;;;;;;;;;;;;;-20.39;84.92;102259.66;5074321;28;20447;-75
2022/01/10 02:51:08;;;;;;;;;;;;;;;-20.48;85.87;102259.69;5074432;28;20299;-77
2022/01/10 02:53:34;;;;;;;;;;;;;;;-20.48;85.51;102258.06;5073854;28;19927;-76
2022/01/10 02:56:02;;;;;;;;;;;;;;;-20.68;85.35;102262.78;5074915;28;20290;-76
2022/01/10 02:58:29;;;;;;;;;;;;;;;-20.94;87.73;102256.25;5074142;28;20369;-76
2022/01/10 03:00:56;;;;;;;;;;;;;;;-20.91;86.27;102259.00;5074081;28;19920;-79
2022/01/10 03:03:22;;;;;;;;;;;;;;;-21.04;86.70;102253.63;5074114;28;19927;-78
2022/01/10 03:05:49;;;;;;;;;;;;;;;-21.15;86.74;102262.50;5074150;28;20381;-77
2022/01/10 03:08:15;;;;;;;;;;;;;;;-21.13;86.54;102262.66;5074315;28;20363;-75
2022/01/10 03:10:42;;;;;;;;;;;;;;;-21.16;86.61;102269.78;5073731;28;19920;-76
2022/01/10 03:13:10;;;;;;;;;;;;;;;-21.18;86.80;102271.22;5074199;28;19927;-75
2022/01/10 03:15:36;;;;;;;;;;;;;;;-20.91;87.32;102268.91;5073988;28;19920;-77
2022/01/10 03:18:03;;;;;;;;;;;;;;;-20.49;83.79;102270.31;5073740;28;19947;-75
2022/01/10 03:20:29;;;;;;;;;;;;;;;-20.51;83.30;102271.78;5073987;28;19928;-80
2022/01/10 03:22:56;;;;;;;;;;;;;;;-20.60;82.97;102276.75;5073852;28;19920;-75
2022/01/10 03:25:23;;;;;;;;;;;;;;;-20.82;83.11;102277.94;5073716;28;19921;-75
2022/01/10 03:27:49;;;;;;;;;;;;;;;-21.33;83.98;102283.84;5073703;28;19920;-75
2022/01/10 03:30:17;;;;;;;;;;;;;;;-21.51;84.96;102291.97;5073508;28;19920;-75
2022/01/10 03:32:45;;;;;;;;;;;;;;;-21.60;85.55;102298.47;5073495;28;20393;-75
2022/01/10 03:35:12;;;;;;;;;;;;;;;-21.70;86.44;102296.72;5073650;28;19920;-74
2022/01/10 03:37:38;;;;;;;;;;;;;;;-21.61;85.22;102299.22;5073684;28;19928;-74
2022/01/10 03:40:06;;;;;;;;;;;;;;;-21.49;84.84;102302.03;5073401;28;19921;-75
2022/01/10 03:42:33;;;;;;;;;;;;;;;-21.43;86.03;102300.16;5073500;28;19924;-75
2022/01/10 03:44:59;;;;;;;;;;;;;;;-21.51;84.83;102301.00;5073367;28;19943;-75
2022/01/10 03:47:27;;;;;;;;;;;;;;;-21.47;84.96;102300.56;5073308;28;19920;-74
2022/01/10 03:49:54;;;;;;;;;;;;;;;-21.40;83.60;102308.72;5087509;22;19926;-67
2022/01/10 03:52:20;;;;;;;;;;;;;;;-21.24;82.70;102305.22;5093395;28;19919;-70
2022/01/10 03:54:47;;;;;;;;;;;;;;;-21.35;84.90;102314.94;5093412;28;19920;-67
2022/01/10 03:57:13;;;;;;;;;;;;;;;-21.38;82.52;102313.81;5093405;28;19920;-66
2022/01/10 03:59:40;;;;;;;;;;;;;;;-21.53;83.67;102308.25;5093204;28;19994;-66
2022/01/10 04:02:06;;;;;;;;;;;;;;;-21.56;84.12;102306.34;5093300;28;19946;-66
2022/01/10 04:04:36;;;;;;;;;;;;;;;-21.68;83.44;102311.69;5092912;28;19920;-66
2022/01/10 04:07:03;;;;;;;;;;;;;;;-21.62;83.80;102304.91;5093265;28;19920;-68
2022/01/10 04:09:30;;;;;;;;;;;;;;;-21.52;84.84;102314.97;5092967;28;19927;-66
2022/01/10 04:11:56;;;;;;;;;;;;;;;-21.80;84.29;102321.25;5092832;28;19927;-66
2022/01/10 04:14:23;;;;;;;;;;;;;;;-21.93;85.41;102336.44;5092895;28;19927;-66
2022/01/10 04:16:50;;;;;;;;;;;;;;;-21.96;87.49;102333.63;5092918;28;19920;-66
2022/01/10 04:19:16;;;;;;;;;;;;;;;-21.87;86.87;102338.63;5092725;28;19927;-66
2022/01/10 04:21:44;;;;;;;;;;;;;;;-21.90;87.47;102348.22;5093077;28;19920;-66
2022/01/10 04:24:11;;;;;;;;;;;;;;;-21.85;86.40;102343.00;5092891;28;19920;-66
2022/01/10 04:26:37;;;;;;;;;;;;;;;-21.90;87.43;102344.16;5092886;28;19920;-66
2022/01/10 04:29:04;;;;;;;;;;;;;;;-21.72;86.34;102345.09;5092702;28;19927;-66
2022/01/10 04:31:30;;;;;;;;;;;;;;;-21.61;86.71;102339.63;5092747;28;19927;-66
2022/01/10 04:33:57;;;;;;;;;;;;;;;-21.41;86.30;102338.25;5092906;28;19927;-67
2022/01/10 04:36:24;;;;;;;;;;;;;;;-21.27;85.54;102337.09;5092847;28;19927;-66
2022/01/10 04:38:52;;;;;;;;;;;;;;;-21.18;83.62;102324.03;5092611;28;20301;-71
2022/01/10 04:41:19;;;;;;;;;;;;;;;-21.22;82.95;102328.50;5092659;28;20305;-66
2022/01/10 04:43:46;;;;;;;;;;;;;;;-21.49;83.39;102337.50;5092699;28;19977;-69
2022/01/10 04:46:12;;;;;;;;;;;;;;;-21.48;81.18;102334.28;5092962;28;19927;-66
2022/01/10 04:48:39;;;;;;;;;;;;;;;-21.85;82.99;102339.66;5092885;28;19920;-67
2022/01/10 04:51:12;;;;;;;;;;;;;;;-21.67;81.36;102346.44;5093020;22;19920;-76
2022/01/10 04:53:39;;;;;;;;;;;;;;;-21.62;82.44;102341.97;5072359;28;19920;-75
2022/01/10 04:56:07;;;;;;;;;;;;;;;-21.67;82.83;102339.03;5072210;28;20392;-75
2022/01/10 04:58:35;;;;;;;;;;;;;;;-21.70;83.17;102335.34;5072725;28;19920;-77
2022/01/10 05:01:02;;;;;;;;;;;;;;;-21.81;82.58;102335.16;5072287;28;19920;-77
2022/01/10 05:03:29;;;;;;;;;;;;;;;-21.96;83.90;102331.16;5072516;28;19927;-75
2022/01/10 05:05:56;;;;;;;;;;;;;;;-22.19;85.61;102348.63;5072376;28;19920;-78
2022/01/10 05:08:22;;;;;;;;;;;;;;;-22.28;85.23;102341.19;5072415;28;19927;-76
2022/01/10 05:10:49;;;;;;;;;;;;;;;-22.32;85.21;102341.63;5072155;28;20367;-75
2022/01/10 05:13:17;;;;;;;;;;;;;;;-22.36;85.85;102342.00;5072117;28;19921;-75
2022/01/10 05:15:46;;;;;;;;;;;;;;;-22.07;85.51;102341.56;5074112;28;19981;-79
2022/01/10 05:18:13;;;;;;;;;;;;;;;-21.98;84.13;102342.50;5076305;28;19924;-74
2022/01/10 05:20:39;;;;;;;;;;;;;;;-22.21;85.72;102353.44;5076374;28;19931;-76
2022/01/10 05:23:06;;;;;;;;;;;;;;;-22.34;85.81;102354.50;5076442;28;20298;-77
2022/01/10 05:25:36;;;;;;;;;;;;;;;-22.38;86.81;102364.78;5075867;28;19920;-80
2022/01/10 05:30:48;;;;;;;;;;;;;;;-22.38;86.16;102374.66;5074257;28;20399;-79
2022/01/10 05:33:24;;;;;;;;;;;;;;;-22.42;86.25;102380.88;5075843;28;20388;-75
2022/01/10 05:35:50;;;;;;;;;;;;;;;-22.26;85.49;102386.66;5075573;28;20412;-79
2022/01/10 05:38:29;;;;;;;;;;;;;;;-21.83;84.71;102390.06;5082655;22;19920;-75
2022/01/10 05:43:36;;;;;;;;;;;;;;;-21.84;81.85;102393.28;5052479;28;19921;-75
2022/01/10 05:46:07;;;;;;;;;;;;;;;-22.06;82.31;102395.16;5075593;28;20010;-75
2022/01/10 05:48:34;;;;;;;;;;;;;;;-21.93;80.93;102392.34;5075656;28;19921;-75
2022/01/10 05:51:01;;;;;;;;;;;;;;;-22.23;79.07;102396.81;5088410;22;19920;-70
2022/01/10 05:53:28;;;;;;;;;;;;;;;-22.40;79.05;102388.41;5075430;28;20038;-70
2022/01/10 05:55:54;;;;;;;;;;;;;;;-22.46;80.58;102393.59;5075158;28;20290;-70
2022/01/10 05:58:21;;;;;;;;;;;;;;;-22.86;82.31;102397.75;5075190;28;19943;-66
2022/01/10 06:00:48;;;;;;;;;;;;;;;-22.92;82.94;102416.81;5075275;28;19927;-69
2022/01/10 06:03:16;;;;;;;;;;;;;;;-22.99;83.45;102419.38;5075099;28;20387;-69
2022/01/10 06:05:42;;;;;;;;;;;;;;;-22.91;83.44;102423.50;5075208;28;19935;-67
2022/01/10 06:08:09;;;;;;;;;;;;;;;-23.00;85.15;102429.97;5075095;28;19920;-70
2022/01/10 06:10:36;;;;;;;;;;;;;;;-22.94;85.86;102432.16;5074720;28;19921;-70
2022/01/10 06:13:03;;;;;;;;;;;;;;;-22.92;85.50;102455.41;5074875;28;19960;-67
2022/01/10 06:15:30;;;;;;;;;;;;;;;-22.92;85.07;102448.00;5075263;28;19920;-71
2022/01/10 06:17:56;;;;;;;;;;;;;;;-22.88;85.08;102462.41;5074857;28;19974;-66
2022/01/10 06:20:24;;;;;;;;;;;;;;;-22.89;85.48;102465.56;5074905;28;19925;-67
2022/01/10 06:22:51;;;;;;;;;;;;;;;-22.83;86.38;102470.28;5074755;28;20381;-66
2022/01/10 06:25:19;;;;;;;;;;;;;;;-22.76;86.52;102471.09;5074850;28;19921;-67
2022/01/10 06:27:45;;;;;;;;;;;;;;;-22.66;86.41;102476.28;5074348;28;19920;-66
2022/01/10 06:30:12;;;;;;;;;;;;;;;-22.65;86.61;102482.09;5074560;28;19920;-70
2022/01/10 06:32:39;;;;;;;;;;;;;;;-22.64;85.76;102482.25;5074876;28;19924;-67
2022/01/10 06:35:06;;;;;;;;;;;;;;;-22.39;85.40;102489.75;5074795;28;20369;-66
2022/01/10 06:37:33;;;;;;;;;;;;;;;-22.23;82.40;102494.69;5074573;28;19953;-70
2022/01/10 06:40:00;;;;;;;;;;;;;;;-22.32;81.51;102508.53;5074437;28;19920;-70
2022/01/10 06:42:27;;;;;;;;;;;;;;;-22.64;81.12;102501.09;5074332;28;19924;-70
2022/01/10 06:44:53;;;;;;;;;;;;;;;-22.52;81.09;102509.81;5074649;28;19927;-71
2022/01/10 06:47:20;;;;;;;;;;;;;;;-22.79;81.69;102507.75;5074556;28;19920;-68
2022/01/10 06:49:46;;;;;;;;;;;;;;;-22.69;81.54;102512.09;5074569;28;19995;-69
2022/01/10 06:52:13;;;;;;;;;;;;;;;-22.51;81.33;102518.09;5074665;28;19924;-70
2022/01/10 06:54:41;;;;;;;;;;;;;;;-22.67;79.76;102515.59;5074328;28;19921;-70
2022/01/10 06:57:08;;;;;;;;;;;;;;;-22.87;80.95;102521.75;5074396;28;19920;-70
2022/01/10 06:59:34;;;;;;;;;;;;;;;-23.09;82.29;102530.03;5074349;28;19920;-69
2022/01/10 07:02:01;;;;;;;;;;;;;;;-23.14;83.46;102531.13;5074121;28;19928;-69
2022/01/10 07:04:28;;;;;;;;;;;;;;;-23.13;84.32;102540.31;5070459;28;19921;-69
2022/01/10 07:06:55;;;;;;;;;;;;;;;-23.08;84.63;102542.53;5073280;28;19920;-68
2022/01/10 07:09:22;;;;;;;;;;;;;;;-22.84;84.73;102545.84;5071989;28;19924;-69
2022/01/10 07:11:49;;;;;;;;;;;;;;;-22.72;84.40;102549.63;5073053;28;19927;-68
2022/01/10 07:14:17;;;;;;;;;;;;;;;-22.57;83.57;102552.84;5070535;28;19924;-69
2022/01/10 07:16:44;;;;;;;;;;;;;;;-22.57;85.02;102552.84;5071944;28;19974;-70
2022/01/10 07:19:11;;;;;;;;;;;;;;;-22.08;84.62;102559.56;5072506;28;19974;-70
2022/01/10 07:21:39;;;;;;;;;;;;;;;-21.85;83.63;102564.44;5058673;28;19928;-70
2022/01/10 07:24:06;;;;;;;;;;;;;;;-21.79;83.12;102568.41;5073552;28;20366;-70
2022/01/10 07:26:33;;;;;;;;;;;;;;;-21.93;83.96;102567.69;5071627;28;20367;-70
2022/01/10 07:29:01;;;;;;;;;;;;;;;-21.85;84.76;102576.78;5072163;28;20358;-70
2022/01/10 07:31:27;;;;;;;;;;;;;;;-21.70;86.77;102580.84;5072468;28;19927;-70
2022/01/10 07:33:55;;;;;;;;;;;;;;;-21.27;83.09;102575.28;5072351;28;19920;-70
2022/01/10 07:36:21;;;;;;;;;;;;;;;-21.32;82.79;102576.41;5071586;28;19920;-66
2022/01/10 07:38:48;;;;;;;;;;;;;;;-21.24;82.68;102590.47;5071786;28;20282;-70
2022/01/10 07:41:14;;;;;;;;;;;;;;;-21.27;82.06;102590.13;5072563;28;19927;-70
2022/01/10 07:43:41;;;;;;;;;;;;;;;-21.41;81.84;102588.75;5072218;28;19924;-69
2022/01/10 07:46:11;;;;;;;;;;;;;;;-21.26;82.87;102596.84;5071692;28;19920;-70
2022/01/10 07:48:38;;;;;;;;;;;;;;;-21.63;82.64;102600.50;5071823;28;20388;-69
2022/01/10 07:51:08;;;;;;;;;;;;;;;-21.38;82.97;102595.63;5073460;28;19928;-69
2022/01/10 07:53:35;;;;;;;;;;;;;;;-21.37;82.53;102603.16;5071797;28;19965;-70
2022/01/10 07:56:02;;;;;;;;;;;;;;;-21.43;82.73;102600.09;5071662;28;19920;-69
2022/01/10 07:58:29;;;;;;;;;;;;;;;-21.55;83.31;102608.69;5072281;28;19920;-66
2022/01/10 08:00:56;;;;;;;;;;;;;;;-21.58;82.61;102616.69;5072264;28;19924;-69
2022/01/10 08:03:24;;;;;;;;;;;;;;;-21.53;83.15;102619.63;5070967;28;19927;-70
2022/01/10 08:05:50;;;;;;;;;;;;;;;-21.60;83.30;102618.13;5071928;28;20278;-65
2022/01/10 08:08:17;;;;;;;;;;;;;;;-21.50;84.58;102624.00;5071962;28;19920;-70
2022/01/10 08:10:44;;;;;;;;;;;;;;;-21.51;83.28;102625.63;5071388;28;19931;-72
2022/01/10 08:13:10;;;;;;;;;;;;;;;-21.47;83.16;102631.72;5071561;28;19927;-72
2022/01/10 08:15:37;;;;;;;;;;;;;;;-21.43;83.33;102632.22;5071619;28;19920;-72
2022/01/10 08:18:05;;;;;;;;;;;;;;;-21.62;83.51;102626.09;5071805;28;20282;-70
2022/01/10 08:20:32;;;;;;;;;;;;;;;-21.94;82.32;102637.56;5070970;28;19928;-70
2022/01/10 08:22:59;;;;;;;;;;;;;;;-22.04;83.24;102648.06;5070919;28;19927;-69
2022/01/10 08:25:26;;;;;;;;;;;;;;;-22.16;85.70;102660.00;5071925;28;19959;-69
2022/01/10 08:27:52;;;;;;;;;;;;;;;-22.05;85.00;102663.59;5072193;28;19927;-70
2022/01/10 08:30:19;;;;;;;;;;;;;;;-22.00;85.78;102669.91;5070550;28;20029;-70
2022/01/10 08:32:50;;;;;;;;;;;;;;;-22.03;84.67;102672.91;5071005;28;19920;-70
2022/01/10 08:35:16;;;;;;;;;;;;;;;-22.11;85.88;102677.75;5071854;28;19968;-69
2022/01/10 08:37:44;;;;;;;;;;;;;;;-22.14;86.14;102679.88;5071921;28;19929;-68
2022/01/10 08:40:12;;;;;;;;;;;;;;;-22.04;86.47;102688.44;5070942;28;19926;-70
2022/01/10 08:42:39;;;;;;;;;;;;;;;-21.38;83.65;102689.56;5071178;28;20013;-70
2022/01/10 08:45:08;;;;;;;;;;;;;;;-21.37;82.60;102686.31;5071853;28;20290;-70
2022/01/10 08:47:34;;;;;;;;;;;;;;;-21.29;82.45;102689.59;5070826;28;20453;-69
2022/01/10 08:50:01;;;;;;;;;;;;;;;-21.45;82.84;102695.44;5088372;22;19904;-75
2022/01/10 08:52:28;;;;;;;;;;;;;;;-21.55;83.26;102692.72;5096210;28;19927;-78
2022/01/10 08:54:56;;;;;;;;;;;;;;;-21.22;82.16;102704.34;5096668;28;19920;-74
2022/01/10 08:57:22;;;;;;;;;;;;;;;-21.10;81.91;102701.53;5092948;28;20293;-74
2022/01/10 08:59:49;;;;;;;;;;;;;;;-21.24;82.38;102699.25;5095150;28;19974;-73
2022/01/10 09:02:15;;;;;;;;;;;;;;;-21.22;82.09;102704.34;5095968;28;19920;-74
2022/01/10 09:04:44;;;;;;;;;;;;;;;-21.42;82.53;102705.69;5095853;28;19920;-74
2022/01/10 09:07:11;;;;;;;;;;;;;;;-21.26;82.50;102707.22;5094892;28;19919;-74
2022/01/10 09:09:38;;;;;;;;;;;;;;;-21.13;82.73;102701.22;5095678;28;19920;-74
2022/01/10 09:12:06;;;;;;;;;;;;;;;-21.02;82.40;102711.34;5095691;28;19931;-76
2022/01/10 09:14:33;;;;;;;;;;;;;;;-20.87;83.20;102711.31;5095227;28;19947;-75
2022/01/10 09:17:00;;;;;;;;;;;;;;;-21.08;83.21;102719.03;5095109;28;19927;-74
2022/01/10 09:19:26;;;;;;;;;;;;;;;-20.92;83.50;102712.44;5095124;28;20380;-79
2022/01/10 09:21:53;;;;;;;;;;;;;;;-20.55;84.13;102713.69;5095850;28;20847;-74
2022/01/10 09:24:20;;;;;;;;;;;;;;;-20.27;83.25;102717.31;5094338;28;19920;-77
2022/01/10 09:26:47;;;;;;;;;;;;;;;-20.36;84.16;102718.88;5094390;28;19943;-74
2022/01/10 09:29:15;;;;;;;;;;;;;;;-20.35;83.70;102717.28;5095222;28;19931;-76
2022/01/10 09:31:41;;;;;;;;;;;;;;;-20.27;84.25;102724.75;5095806;28;19927;-77
2022/01/10 09:34:08;;;;;;;;;;;;;;;-20.31;84.88;102736.69;5094801;28;19927;-74
2022/01/10 09:36:35;;;;;;;;;;;;;;;-20.12;85.27;102736.91;5095409;28;19920;-74
2022/01/10 09:39:02;;;;;;;;;;;;;;;-19.80;84.06;102743.47;5095646;28;19920;-79
2022/01/10 09:41:29;;;;;;;;;;;;;;;-19.78;84.09;102746.09;5094682;28;19920;-75
2022/01/10 09:43:57;;;;;;;;;;;;;;;-19.80;84.21;102757.47;5094919;28;19924;-75
2022/01/10 09:46:25;;;;;;;;;;;;;;;-19.85;85.21;102753.66;5094886;28;19965;-76
2022/01/10 09:48:52;;;;;;;;;;;;;;;-19.78;84.85;102766.81;5095629;28;20015;-74
2022/01/10 09:51:19;;;;;;;;;;;;;;;-19.39;84.92;102763.97;5097550;22;19927;-67
2022/01/10 09:53:46;;;;;;;;;;;;;;;-19.22;83.86;102765.59;5093817;28;20010;-69
2022/01/10 09:56:13;;;;;;;;;;;;;;;-19.11;82.76;102772.50;5094601;28;19923;-68
2022/01/10 09:58:39;;;;;;;;;;;;;;;-19.20;84.01;102765.75;5095236;28;20281;-66
2022/01/10 10:01:06;;;;;;;;;;;;;;;-19.18;84.21;102762.69;5091974;28;19919;-67
2022/01/10 10:03:34;;;;;;;;;;;;;;;-19.16;83.86;102766.22;5094709;28;19924;-67
2022/01/10 10:06:01;;;;;;;;;;;;;;;-19.22;85.13;102770.56;5094737;28;19920;-69
2022/01/10 10:08:27;;;;;;;;;;;;;;;-19.16;84.53;102768.69;5093828;28;20149;-68
2022/01/10 10:10:54;;;;;;;;;;;;;;;-19.14;85.07;102782.09;5093511;28;20282;-65
2022/01/10 10:13:21;;;;;;;;;;;;;;;-18.92;85.11;102781.69;5094084;28;20267;-68
2022/01/10 10:15:48;;;;;;;;;;;;;;;-18.49;83.84;102774.22;5094826;28;19927;-69
2022/01/10 10:18:15;;;;;;;;;;;;;;;-18.75;84.22;102779.22;5092354;28;19927;-69
2022/01/10 10:20:44;;;;;;;;;;;;;;;-18.75;85.20;102785.78;5073577;28;20286;-69
2022/01/10 10:23:14;;;;;;;;;;;;;;;-18.64;85.36;102791.75;5060313;28;19924;-69
2022/01/10 10:25:45;;;;;;;;;;;;;;;-18.30;84.52;102785.88;5074864;28;20018;-68
2022/01/10 10:28:13;;;;;;;;;;;;;;;-18.22;84.01;102795.78;5072450;28;19927;-70
2022/01/10 10:30:40;;;;;;;;;;;;;;;-18.35;84.92;102797.84;5092826;28;19928;-65
2022/01/10 10:33:16;;;;;;;;;;;;;;;-18.25;83.81;102794.63;5093973;28;19931;-65
2022/01/10 10:35:45;;;;;;;;;;;;;;;-18.09;84.50;102797.78;5093882;28;19923;-66
2022/01/10 10:38:12;;;;;;;;;;;;;;;-18.08;84.17;102793.69;5080180;28;19935;-67
2022/01/10 10:40:42;;;;;;;;;;;;;;;-17.93;84.14;102791.75;5093606;28;19919;-67
2022/01/10 10:43:09;;;;;;;;;;;;;;;-17.89;84.23;102786.34;5094153;28;19920;-70
2022/01/10 10:45:36;;;;;;;;;;;;;;;-18.11;86.00;102795.91;5092767;28;19927;-67
2022/01/10 10:48:05;;;;;;;;;;;;;;;-18.10;85.96;102795.19;5092329;28;19919;-70
2022/01/10 10:50:34;;;;;;;;;;;;;;;-18.03;86.05;102797.47;5073752;28;19920;-71
2022/01/10 10:53:05;;;;;;;;;;;;;;;-18.02;85.98;102785.22;5074171;28;19920;-67
2022/01/10 10:55:34;;;;;;;;;;;;;;;-17.86;85.54;102782.53;5072116;28;19928;-68
2022/01/10 10:58:00;;;;;;;;;;;;;;;-17.82;85.64;102783.69;5073234;28;19927;-70
2022/01/10 11:00:27;;;;;;;;;;;;;;;-17.77;86.36;102780.00;5072091;28;19931;-69
2022/01/10 11:02:53;;;;;;;;;;;;;;;-17.43;86.09;102778.94;5072666;28;19928;-69
2022/01/10 11:05:20;;;;;;;;;;;;;;;-17.54;86.06;102784.56;5087102;28;20376;-70
2022/01/10 11:07:46;;;;;;;;;;;;;;;-17.58;86.29;102785.88;5093429;28;19924;-70
2022/01/10 11:10:15;;;;;;;;;;;;;;;-17.58;86.18;102790.00;5093154;28;19924;-70
2022/01/10 11:12:41;;;;;;;;;;;;;;;-17.48;85.48;102801.66;5090981;28;20286;-69
2022/01/10 11:15:09;;;;;;;;;;;;;;;-17.47;86.54;102794.31;5092288;28;19927;-70
2022/01/10 11:17:36;;;;;;;;;;;;;;;-17.40;85.40;102799.13;5092515;28;20366;-70
2022/01/10 11:20:11;;;;;;;;;;;;;;;-17.45;87.06;102792.84;5093509;28;19927;-70
2022/01/10 11:22:38;;;;;;;;;;;;;;;-17.18;85.31;102798.56;5083855;28;19924;-70
2022/01/10 11:25:05;;;;;;;;;;;;;;;-17.38;85.67;102799.25;5071999;28;20385;-70
2022/01/10 11:27:34;;;;;;;;;;;;;;;-17.36;86.00;102801.16;5072378;28;19940;-69
2022/01/10 11:30:02;;;;;;;;;;;;;;;-17.33;87.52;102803.03;5072307;28;19931;-70
2022/01/10 11:32:48;;;;;;;;;;;;;;;-17.42;87.64;102804.69;5076302;28;19924;-70
2022/01/10 11:35:14;;;;;;;;;;;;;;;-17.26;86.31;102804.44;5073251;28;19931;-70
2022/01/10 11:37:41;;;;;;;;;;;;;;;-16.91;86.05;102815.94;5072738;28;20275;-70
2022/01/10 11:40:08;;;;;;;;;;;;;;;-16.93;86.67;102819.91;5071090;28;19924;-69
2022/01/10 11:42:43;;;;;;;;;;;;;;;-16.98;86.56;102823.59;5071380;28;19926;-70
2022/01/10 11:45:10;;;;;;;;;;;;;;;-17.00;85.67;102834.16;5072497;28;19927;-69
2022/01/10 11:48:11;;;;;;;;;;;;;;;-17.21;86.24;102828.16;5073151;28;19920;-70
2022/01/10 11:50:41;;;;;;;;;;;;;;;-16.81;86.27;102831.72;5091347;22;19920;-76
2022/01/10 11:53:08;;;;;;;;;;;;;;;-16.80;87.53;102836.81;5112507;28;19924;-80
2022/01/10 11:55:39;;;;;;;;;;;;;;;-16.75;87.06;102838.06;5127291;27;19949;-73
2022/01/10 11:58:14;;;;;;;;;;;;;;;-16.71;87.56;102844.22;5132706;27;19919;-77
2022/01/10 12:00:41;;;;;;;;;;;;;;;-16.64;87.54;102839.03;5109306;27;19931;-74
2022/01/10 12:03:07;;;;;;;;;;;;;;;-16.77;87.09;102842.06;5092079;28;19927;-79
2022/01/10 12:05:34;;;;;;;;;;;;;;;-16.80;86.67;102841.81;5093133;28;19947;-81
2022/01/10 12:08:03;;;;;;;;;;;;;;;-16.82;86.66;102845.78;5097813;28;19919;-76
2022/01/10 12:10:30;;;;;;;;;;;;;;;-16.89;86.72;102845.13;5104967;28;20381;-75
2022/01/10 12:13:02;;;;;;;;;;;;;;;-16.96;87.10;102837.06;5091644;28;20427;-79
2022/01/10 12:15:32;;;;;;;;;;;;;;;-16.87;87.44;102849.50;5091810;28;20378;-77
2022/01/10 12:17:58;;;;;;;;;;;;;;;-16.65;87.29;102847.22;5106058;28;20358;-77
2022/01/10 12:20:25;;;;;;;;;;;;;;;-16.64;87.01;102846.50;5112182;28;19919;-74
2022/01/10 12:22:52;;;;;;;;;;;;;;;-16.52;87.07;102847.56;5095714;28;20019;-75
2022/01/10 12:25:19;;;;;;;;;;;;;;;-16.55;86.90;102854.78;5094179;28;19927;-75
2022/01/10 12:27:46;;;;;;;;;;;;;;;-16.60;87.49;102853.50;5093822;28;19924;-74
2022/01/10 12:30:13;;;;;;;;;;;;;;;-16.60;87.05;102848.53;5097008;28;21285;-75
2022/01/10 12:32:41;;;;;;;;;;;;;;;-16.50;88.24;102863.53;5112894;28;20380;-74
2022/01/10 12:35:09;;;;;;;;;;;;;;;-16.57;86.98;102857.88;5096817;28;19920;-75
2022/01/10 12:37:36;;;;;;;;;;;;;;;-16.57;87.24;102858.75;5111772;28;19920;-74
2022/01/10 12:40:03;;;;;;;;;;;;;;;-16.38;86.79;102863.75;5111873;28;19920;-73
2022/01/10 12:42:30;;;;;;;;;;;;;;;-16.39;86.08;102868.59;5112261;28;19920;-76